»·PEaware :: DIHNF KHMT-KSNA

DIHNF :: KHMT-KSNA

FLIGHT INFORMATION

Flight Status: Arrived
Operator: Unknown
More flights by this operator :: More flights under this callsign
Pilot: Klaus A. (15485)
Aircraft: Unknown
(DA62)
More flights by this aircraft type
Origin: KHMT Hemet-Ryan
United States
Destination: KSNA John Wayne-Orange Co
United States
More flights between these airports :: More routes between these airports
Route: PDZ PDZ270/13 RNDAL V363 POXKU V8 SLI
File this flight plan on PilotEdge
Remarks: TEC route ONTP10, DEP. via ODP RWY 5,
Altitude:
(Current/Filed)
4,000ft
Speed:
(Current/Filed)
170kts
Departed: 02-Dec-19 09:51 AM
Arrived: 02-Dec-19 10:15 AM
Distance/Time
Traveled:
42nm/0:24
Distance/Time
To Go:
Arrived

Flight Plot

Page will automatically refresh every two minutes.

Flight plan parsing failed; only flown route is shown


Map Options




Map Legend


Flown Route
Filed Route
Departure Airport
Arrival Airport
Navaid (VOR, NDB)
Fix

Horizontal Profiles

Position Reports

Time Latitude Longitude Heading Altitude Ground
Speed
02-Dec-19 09:25 33.731334 -117.019171 242 1516ft 0kts
02-Dec-19 09:26 33.731334 -117.019171 242 1516ft 0kts
02-Dec-19 09:27 33.731334 -117.019171 243 1516ft 0kts
02-Dec-19 09:28 33.731334 -117.019171 242 1516ft 0kts
02-Dec-19 09:29 33.731334 -117.019171 242 1516ft 0kts
02-Dec-19 09:30 33.731334 -117.019171 242 1516ft 0kts
02-Dec-19 09:31 33.731334 -117.019171 242 1516ft 0kts
02-Dec-19 09:32 33.731334 -117.019171 242 1516ft 0kts
02-Dec-19 09:33 33.731334 -117.019171 242 1516ft 0kts
02-Dec-19 09:33 33.731334 -117.019171 242 1516ft 0kts
02-Dec-19 09:35 33.731334 -117.019171 242 1516ft 0kts
02-Dec-19 09:36 33.731334 -117.019171 242 1516ft 0kts
02-Dec-19 09:36 33.731334 -117.019171 242 1516ft 0kts
02-Dec-19 09:37 33.731330 -117.019180 242 1516ft 0kts
02-Dec-19 09:39 33.733256 -117.021465 242 1516ft 11kts
02-Dec-19 09:39 33.731576 -117.025401 242 1516ft 19kts
02-Dec-19 09:40 33.730270 -117.028735 318 1516ft 0kts
02-Dec-19 09:41 33.730270 -117.028735 318 1516ft 0kts
02-Dec-19 09:42 33.730270 -117.028735 318 1516ft 0kts
02-Dec-19 09:43 33.730270 -117.028735 318 1516ft 0kts
02-Dec-19 09:44 33.730270 -117.028735 318 1516ft 0kts
02-Dec-19 09:45 33.730270 -117.028735 318 1516ft 0kts
02-Dec-19 09:46 33.730270 -117.028735 318 1516ft 0kts
02-Dec-19 09:48 33.730270 -117.028735 318 1516ft 0kts
02-Dec-19 09:48 33.730270 -117.028735 318 1516ft 0kts
02-Dec-19 09:49 33.730270 -117.028735 318 1516ft 0kts
02-Dec-19 09:50 33.731608 -117.027149 64 1516ft 48kts
02-Dec-19 09:51 33.745632 -117.005834 10 2288ft 105kts
02-Dec-19 09:52 33.757539 -117.035481 276 3252ft 113kts
02-Dec-19 09:53 33.764064 -117.074320 270 3993ft 136kts
02-Dec-19 09:54 33.768174 -117.125270 273 4022ft 159kts
02-Dec-19 09:55 33.772762 -117.179568 278 3995ft 166kts
02-Dec-19 09:56 33.790334 -117.231639 288 3945ft 169kts
02-Dec-19 09:57 33.809417 -117.283328 284 3864ft 171kts
02-Dec-19 09:58 33.834684 -117.328979 309 3987ft 164kts
02-Dec-19 09:59 33.856397 -117.378166 290 3912ft 170kts
02-Dec-19 10:00 33.876290 -117.429026 294 3922ft 168kts
02-Dec-19 10:01 33.897163 -117.479006 297 3955ft 169kts
02-Dec-19 10:02 33.917155 -117.529653 272 3970ft 165kts
02-Dec-19 10:03 33.919065 -117.585468 270 3942ft 166kts
02-Dec-19 10:04 33.920647 -117.641081 268 3969ft 164kts
02-Dec-19 10:05 33.922471 -117.696707 266 3968ft 163kts
02-Dec-19 10:06 33.922279 -117.751422 269 3948ft 165kts
02-Dec-19 10:07 33.899028 -117.782456 173 3993ft 143kts
02-Dec-19 10:08 33.862065 -117.785293 209 4017ft 151kts
02-Dec-19 10:09 33.826930 -117.813284 201 3973ft 150kts
02-Dec-19 10:10 33.787184 -117.835194 176 3277ft 156kts
02-Dec-19 10:11 33.744539 -117.840713 182 2658ft 152kts
02-Dec-19 10:12 33.705439 -117.850390 187 870ft 136kts
02-Dec-19 10:13 33.680309 -117.864053 195 71ft 71kts
02-Dec-19 10:14 33.673840 -117.866635 26 60ft 8kts
02-Dec-19 10:15 33.673912 -117.866600 20 60ft 0kts
02-Dec-19 10:16 33.673912 -117.866600 20 60ft 0kts
02-Dec-19 10:17 33.674519 -117.866210 27 60ft 13kts
02-Dec-19 10:18 33.678611 -117.863616 27 60ft 15kts
02-Dec-19 10:19 33.682312 -117.861250 38 60ft 12kts
02-Dec-19 10:20 33.682401 -117.860335 118 60ft 0kts
02-Dec-19 10:21 33.682401 -117.860335 118 60ft 0kts
02-Dec-19 10:22 33.682401 -117.860335 118 60ft 0kts
02-Dec-19 10:23 33.682401 -117.860335 118 60ft 0kts
02-Dec-19 10:24 33.682401 -117.860335 118 60ft 0kts
02-Dec-19 10:25 33.682401 -117.860335 118 60ft 0kts
02-Dec-19 10:26 33.682401 -117.860335 118 60ft 0kts
02-Dec-19 10:27 33.682401 -117.860335 118 60ft 0kts
02-Dec-19 10:28 33.682401 -117.860335 118 60ft 0kts
02-Dec-19 10:29 33.682401 -117.860335 118 60ft 0kts

Navigation Log

Ident Type
Flight plan parsing failed, navigation log unavailable